sensor_id;sensor_type;location;lat;lon;timestamp;P1;durP1;ratioP1;P2;durP2;ratioP2
10645;SDS011;5371;49.782;9.932;2023-04-03T00:01:12;5.63;;;2.87;;
10645;SDS011;5371;49.782;9.932;2023-04-03T00:03:39;3.93;;;2.80;;
10645;SDS011;5371;49.782;9.932;2023-04-03T00:06:07;5.73;;;2.90;;
10645;SDS011;5371;49.782;9.932;2023-04-03T00:08:34;4.27;;;2.83;;
10645;SDS011;5371;49.782;9.932;2023-04-03T00:11:00;4.20;;;3.13;;
10645;SDS011;5371;49.782;9.932;2023-04-03T00:13:28;6.17;;;3.40;;
10645;SDS011;5371;49.782;9.932;2023-04-03T00:15:55;4.37;;;3.13;;
10645;SDS011;5371;49.782;9.932;2023-04-03T00:18:22;5.63;;;3.30;;
10645;SDS011;5371;49.782;9.932;2023-04-03T00:20:49;3.90;;;3.20;;
10645;SDS011;5371;49.782;9.932;2023-04-03T00:23:16;6.83;;;3.40;;
10645;SDS011;5371;49.782;9.932;2023-04-03T00:25:42;7.10;;;3.33;;
10645;SDS011;5371;49.782;9.932;2023-04-03T00:28:09;4.77;;;3.10;;
10645;SDS011;5371;49.782;9.932;2023-04-03T00:30:37;7.17;;;3.40;;
10645;SDS011;5371;49.782;9.932;2023-04-03T00:33:04;5.30;;;3.00;;
10645;SDS011;5371;49.782;9.932;2023-04-03T00:35:31;5.23;;;3.37;;
10645;SDS011;5371;49.782;9.932;2023-04-03T00:37:58;3.97;;;3.30;;
10645;SDS011;5371;49.782;9.932;2023-04-03T00:40:26;5.17;;;3.30;;
10645;SDS011;5371;49.782;9.932;2023-04-03T00:42:55;5.50;;;3.30;;
10645;SDS011;5371;49.782;9.932;2023-04-03T00:45:27;5.37;;;3.27;;
10645;SDS011;5371;49.782;9.932;2023-04-03T00:47:55;4.20;;;3.00;;
10645;SDS011;5371;49.782;9.932;2023-04-03T00:50:25;5.57;;;3.27;;
10645;SDS011;5371;49.782;9.932;2023-04-03T00:52:51;6.10;;;3.27;;
10645;SDS011;5371;49.782;9.932;2023-04-03T00:55:18;4.13;;;3.20;;
10645;SDS011;5371;49.782;9.932;2023-04-03T00:57:46;6.00;;;3.53;;
10645;SDS011;5371;49.782;9.932;2023-04-03T01:00:14;5.97;;;3.33;;
10645;SDS011;5371;49.782;9.932;2023-04-03T01:02:42;5.20;;;3.17;;
10645;SDS011;5371;49.782;9.932;2023-04-03T01:05:12;6.93;;;3.20;;
10645;SDS011;5371;49.782;9.932;2023-04-03T01:07:41;6.43;;;3.53;;
10645;SDS011;5371;49.782;9.932;2023-04-03T01:10:09;6.80;;;3.27;;
10645;SDS011;5371;49.782;9.932;2023-04-03T01:12:37;5.43;;;3.30;;
10645;SDS011;5371;49.782;9.932;2023-04-03T01:15:05;4.73;;;3.43;;
10645;SDS011;5371;49.782;9.932;2023-04-03T01:17:33;4.83;;;3.33;;
10645;SDS011;5371;49.782;9.932;2023-04-03T01:20:19;5.47;;;3.30;;
10645;SDS011;5371;49.782;9.932;2023-04-03T01:22:50;4.63;;;3.03;;
10645;SDS011;5371;49.782;9.932;2023-04-03T01:25:21;4.50;;;3.50;;
10645;SDS011;5371;49.782;9.932;2023-04-03T01:27:48;5.23;;;3.43;;
10645;SDS011;5371;49.782;9.932;2023-04-03T01:30:16;5.07;;;3.00;;
10645;SDS011;5371;49.782;9.932;2023-04-03T01:32:44;4.57;;;3.30;;
10645;SDS011;5371;49.782;9.932;2023-04-03T01:35:12;4.93;;;3.50;;
10645;SDS011;5371;49.782;9.932;2023-04-03T01:37:39;4.53;;;3.40;;
10645;SDS011;5371;49.782;9.932;2023-04-03T01:40:06;8.33;;;3.40;;
10645;SDS011;5371;49.782;9.932;2023-04-03T01:42:34;4.20;;;3.20;;
10645;SDS011;5371;49.782;9.932;2023-04-03T01:45:01;6.10;;;3.67;;
10645;SDS011;5371;49.782;9.932;2023-04-03T01:47:27;5.87;;;2.93;;
10645;SDS011;5371;49.782;9.932;2023-04-03T01:49:56;5.37;;;3.13;;
10645;SDS011;5371;49.782;9.932;2023-04-03T01:52:23;7.03;;;3.20;;
10645;SDS011;5371;49.782;9.932;2023-04-03T01:54:50;3.50;;;2.70;;
10645;SDS011;5371;49.782;9.932;2023-04-03T01:57:17;6.10;;;3.20;;
10645;SDS011;5371;49.782;9.932;2023-04-03T01:59:44;6.07;;;3.13;;
10645;SDS011;5371;49.782;9.932;2023-04-03T02:02:11;4.43;;;3.17;;
10645;SDS011;5371;49.782;9.932;2023-04-03T02:04:39;6.07;;;3.20;;
10645;SDS011;5371;49.782;9.932;2023-04-03T02:07:07;5.53;;;3.13;;
10645;SDS011;5371;49.782;9.932;2023-04-03T02:09:34;4.93;;;2.90;;
10645;SDS011;5371;49.782;9.932;2023-04-03T02:12:01;4.90;;;3.10;;
10645;SDS011;5371;49.782;9.932;2023-04-03T02:14:29;4.13;;;2.90;;
10645;SDS011;5371;49.782;9.932;2023-04-03T02:16:56;5.10;;;3.17;;
10645;SDS011;5371;49.782;9.932;2023-04-03T02:19:23;4.27;;;3.10;;
10645;SDS011;5371;49.782;9.932;2023-04-03T02:21:49;4.30;;;3.07;;
10645;SDS011;5371;49.782;9.932;2023-04-03T02:24:17;7.77;;;3.60;;
10645;SDS011;5371;49.782;9.932;2023-04-03T02:26:44;6.93;;;3.07;;
10645;SDS011;5371;49.782;9.932;2023-04-03T02:29:11;4.60;;;2.97;;
10645;SDS011;5371;49.782;9.932;2023-04-03T02:31:38;5.33;;;3.43;;
10645;SDS011;5371;49.782;9.932;2023-04-03T02:34:04;3.17;;;2.80;;
10645;SDS011;5371;49.782;9.932;2023-04-03T02:36:34;5.73;;;3.00;;
10645;SDS011;5371;49.782;9.932;2023-04-03T02:39:04;5.70;;;3.20;;
10645;SDS011;5371;49.782;9.932;2023-04-03T02:41:32;4.17;;;3.07;;
10645;SDS011;5371;49.782;9.932;2023-04-03T02:44:02;5.20;;;3.67;;
10645;SDS011;5371;49.782;9.932;2023-04-03T02:46:29;3.97;;;3.00;;
10645;SDS011;5371;49.782;9.932;2023-04-03T02:48:55;5.77;;;3.13;;
10645;SDS011;5371;49.782;9.932;2023-04-03T02:51:23;5.70;;;2.90;;
10645;SDS011;5371;49.782;9.932;2023-04-03T02:53:51;5.87;;;2.97;;
10645;SDS011;5371;49.782;9.932;2023-04-03T02:56:22;5.60;;;2.93;;
10645;SDS011;5371;49.782;9.932;2023-04-03T02:58:50;4.87;;;3.23;;
10645;SDS011;5371;49.782;9.932;2023-04-03T03:01:18;4.17;;;2.90;;
10645;SDS011;5371;49.782;9.932;2023-04-03T03:03:44;4.67;;;3.30;;
10645;SDS011;5371;49.782;9.932;2023-04-03T03:06:12;5.63;;;3.17;;
10645;SDS011;5371;49.782;9.932;2023-04-03T03:08:39;3.03;;;2.73;;
10645;SDS011;5371;49.782;9.932;2023-04-03T03:11:06;4.40;;;3.10;;
10645;SDS011;5371;49.782;9.932;2023-04-03T03:13:32;4.53;;;3.03;;
10645;SDS011;5371;49.782;9.932;2023-04-03T03:16:01;5.50;;;3.30;;
10645;SDS011;5371;49.782;9.932;2023-04-03T03:18:28;4.13;;;2.90;;
10645;SDS011;5371;49.782;9.932;2023-04-03T03:20:55;5.13;;;3.17;;
10645;SDS011;5371;49.782;9.932;2023-04-03T03:23:23;4.87;;;3.23;;
10645;SDS011;5371;49.782;9.932;2023-04-03T03:25:54;6.57;;;3.80;;
10645;SDS011;5371;49.782;9.932;2023-04-03T03:28:20;6.83;;;3.67;;
10645;SDS011;5371;49.782;9.932;2023-04-03T03:30:48;5.97;;;3.60;;
10645;SDS011;5371;49.782;9.932;2023-04-03T03:33:18;6.83;;;3.83;;
10645;SDS011;5371;49.782;9.932;2023-04-03T03:35:44;6.50;;;3.90;;
10645;SDS011;5371;49.782;9.932;2023-04-03T03:38:11;5.00;;;3.67;;
10645;SDS011;5371;49.782;9.932;2023-04-03T03:40:38;6.90;;;4.03;;
10645;SDS011;5371;49.782;9.932;2023-04-03T03:43:05;4.53;;;4.00;;
10645;SDS011;5371;49.782;9.932;2023-04-03T03:45:32;7.47;;;4.03;;
10645;SDS011;5371;49.782;9.932;2023-04-03T03:47:59;6.20;;;4.23;;
10645;SDS011;5371;49.782;9.932;2023-04-03T03:50:27;8.53;;;3.40;;
10645;SDS011;5371;49.782;9.932;2023-04-03T03:52:54;5.77;;;4.10;;
10645;SDS011;5371;49.782;9.932;2023-04-03T03:55:21;4.90;;;3.57;;
10645;SDS011;5371;49.782;9.932;2023-04-03T03:57:51;5.27;;;3.27;;
10645;SDS011;5371;49.782;9.932;2023-04-03T04:00:19;5.67;;;3.83;;
10645;SDS011;5371;49.782;9.932;2023-04-03T04:02:51;4.87;;;3.10;;
10645;SDS011;5371;49.782;9.932;2023-04-03T04:05:20;9.43;;;3.20;;
10645;SDS011;5371;49.782;9.932;2023-04-03T04:07:48;5.50;;;3.07;;
10645;SDS011;5371;49.782;9.932;2023-04-03T04:10:16;6.27;;;3.13;;
10645;SDS011;5371;49.782;9.932;2023-04-03T04:12:44;6.43;;;3.40;;
10645;SDS011;5371;49.782;9.932;2023-04-03T04:15:11;4.70;;;3.07;;
10645;SDS011;5371;49.782;9.932;2023-04-03T04:17:38;4.20;;;3.00;;
10645;SDS011;5371;49.782;9.932;2023-04-03T04:20:10;5.50;;;3.03;;
10645;SDS011;5371;49.782;9.932;2023-04-03T04:22:38;7.43;;;3.10;;
10645;SDS011;5371;49.782;9.932;2023-04-03T04:25:07;5.27;;;3.10;;
10645;SDS011;5371;49.782;9.932;2023-04-03T04:27:35;3.67;;;2.87;;
10645;SDS011;5371;49.782;9.932;2023-04-03T04:30:03;5.87;;;2.97;;
10645;SDS011;5371;49.782;9.932;2023-04-03T04:32:31;5.53;;;3.23;;
10645;SDS011;5371;49.782;9.932;2023-04-03T04:34:58;4.20;;;3.30;;
10645;SDS011;5371;49.782;9.932;2023-04-03T04:37:26;5.30;;;3.30;;
10645;SDS011;5371;49.782;9.932;2023-04-03T04:39:53;6.37;;;3.47;;
10645;SDS011;5371;49.782;9.932;2023-04-03T04:42:21;5.90;;;3.30;;
10645;SDS011;5371;49.782;9.932;2023-04-03T04:44:49;6.50;;;3.40;;
10645;SDS011;5371;49.782;9.932;2023-04-03T04:47:16;7.10;;;3.27;;
10645;SDS011;5371;49.782;9.932;2023-04-03T04:49:43;6.03;;;3.70;;
10645;SDS011;5371;49.782;9.932;2023-04-03T04:52:13;3.77;;;2.87;;
10645;SDS011;5371;49.782;9.932;2023-04-03T04:54:40;6.07;;;3.50;;
10645;SDS011;5371;49.782;9.932;2023-04-03T04:57:08;4.50;;;3.27;;
10645;SDS011;5371;49.782;9.932;2023-04-03T04:59:37;4.20;;;3.30;;
10645;SDS011;5371;49.782;9.932;2023-04-03T05:02:05;5.33;;;3.20;;
10645;SDS011;5371;49.782;9.932;2023-04-03T05:04:32;5.70;;;3.47;;
10645;SDS011;5371;49.782;9.932;2023-04-03T05:07:05;4.73;;;3.60;;
10645;SDS011;5371;49.782;9.932;2023-04-03T05:09:34;7.03;;;3.90;;
10645;SDS011;5371;49.782;9.932;2023-04-03T05:12:02;7.90;;;3.60;;
10645;SDS011;5371;49.782;9.932;2023-04-03T05:14:36;4.80;;;2.97;;
10645;SDS011;5371;49.782;9.932;2023-04-03T05:17:06;6.70;;;3.30;;
10645;SDS011;5371;49.782;9.932;2023-04-03T05:19:36;8.93;;;3.40;;
10645;SDS011;5371;49.782;9.932;2023-04-03T05:22:05;7.80;;;3.60;;
10645;SDS011;5371;49.782;9.932;2023-04-03T05:24:31;9.27;;;5.00;;
10645;SDS011;5371;49.782;9.932;2023-04-03T05:26:59;7.27;;;3.80;;
10645;SDS011;5371;49.782;9.932;2023-04-03T05:29:25;5.67;;;3.87;;
10645;SDS011;5371;49.782;9.932;2023-04-03T05:31:54;7.07;;;3.73;;
10645;SDS011;5371;49.782;9.932;2023-04-03T05:34:21;5.77;;;3.50;;
10645;SDS011;5371;49.782;9.932;2023-04-03T05:36:51;3.43;;;3.13;;
10645;SDS011;5371;49.782;9.932;2023-04-03T05:39:18;7.13;;;3.70;;
10645;SDS011;5371;49.782;9.932;2023-04-03T05:41:46;6.77;;;3.43;;
10645;SDS011;5371;49.782;9.932;2023-04-03T05:44:13;5.17;;;3.50;;
10645;SDS011;5371;49.782;9.932;2023-04-03T05:46:42;6.40;;;3.67;;
10645;SDS011;5371;49.782;9.932;2023-04-03T05:49:11;5.33;;;3.50;;
10645;SDS011;5371;49.782;9.932;2023-04-03T05:51:38;6.17;;;3.37;;
10645;SDS011;5371;49.782;9.932;2023-04-03T05:54:17;9.33;;;4.80;;
10645;SDS011;5371;49.782;9.932;2023-04-03T05:56:45;7.23;;;4.37;;
10645;SDS011;5371;49.782;9.932;2023-04-03T05:59:12;5.60;;;3.47;;
10645;SDS011;5371;49.782;9.932;2023-04-03T06:01:39;6.50;;;3.37;;
10645;SDS011;5371;49.782;9.932;2023-04-03T06:04:06;6.27;;;3.53;;
10645;SDS011;5371;49.782;9.932;2023-04-03T06:06:46;4.33;;;3.30;;
10645;SDS011;5371;49.782;9.932;2023-04-03T06:09:13;4.97;;;3.33;;
10645;SDS011;5371;49.782;9.932;2023-04-03T06:11:41;6.70;;;3.33;;
10645;SDS011;5371;49.782;9.932;2023-04-03T06:14:09;6.73;;;3.80;;
10645;SDS011;5371;49.782;9.932;2023-04-03T06:16:36;6.43;;;3.13;;
10645;SDS011;5371;49.782;9.932;2023-04-03T06:19:06;5.90;;;3.30;;
10645;SDS011;5371;49.782;9.932;2023-04-03T06:21:33;7.03;;;4.03;;
10645;SDS011;5371;49.782;9.932;2023-04-03T06:24:03;8.47;;;3.70;;
10645;SDS011;5371;49.782;9.932;2023-04-03T06:26:31;8.27;;;4.80;;
10645;SDS011;5371;49.782;9.932;2023-04-03T06:28:58;6.17;;;3.63;;
10645;SDS011;5371;49.782;9.932;2023-04-03T06:31:25;5.33;;;3.03;;
10645;SDS011;5371;49.782;9.932;2023-04-03T06:33:52;6.00;;;3.23;;
10645;SDS011;5371;49.782;9.932;2023-04-03T06:36:19;5.93;;;3.47;;
10645;SDS011;5371;49.782;9.932;2023-04-03T06:38:46;7.17;;;3.43;;
10645;SDS011;5371;49.782;9.932;2023-04-03T06:41:14;5.50;;;3.47;;
10645;SDS011;5371;49.782;9.932;2023-04-03T06:43:41;4.50;;;3.17;;
10645;SDS011;5371;49.782;9.932;2023-04-03T06:46:11;6.47;;;3.30;;
10645;SDS011;5371;49.782;9.932;2023-04-03T06:48:38;6.70;;;3.30;;
10645;SDS011;5371;49.782;9.932;2023-04-03T06:51:05;5.23;;;2.97;;
10645;SDS011;5371;49.782;9.932;2023-04-03T06:53:32;6.10;;;3.30;;
10645;SDS011;5371;49.782;9.932;2023-04-03T06:55:58;8.60;;;3.83;;
10645;SDS011;5371;49.782;9.932;2023-04-03T06:58:26;4.87;;;3.40;;
10645;SDS011;5371;49.782;9.932;2023-04-03T07:00:53;6.63;;;3.40;;
10645;SDS011;5371;49.782;9.932;2023-04-03T07:03:21;5.30;;;3.30;;
10645;SDS011;5371;49.782;9.932;2023-04-03T07:05:47;4.93;;;3.13;;
10645;SDS011;5371;49.782;9.932;2023-04-03T07:08:14;7.83;;;3.43;;
10645;SDS011;5371;49.782;9.932;2023-04-03T07:10:41;5.77;;;3.20;;
10645;SDS011;5371;49.782;9.932;2023-04-03T07:13:07;4.27;;;3.10;;
10645;SDS011;5371;49.782;9.932;2023-04-03T07:15:36;7.57;;;3.37;;
10645;SDS011;5371;49.782;9.932;2023-04-03T07:18:02;7.37;;;3.60;;
10645;SDS011;5371;49.782;9.932;2023-04-03T07:20:29;3.67;;;2.80;;
10645;SDS011;5371;49.782;9.932;2023-04-03T07:22:56;6.80;;;2.83;;
10645;SDS011;5371;49.782;9.932;2023-04-03T07:25:23;3.93;;;2.47;;
10645;SDS011;5371;49.782;9.932;2023-04-03T07:27:49;6.37;;;2.43;;
10645;SDS011;5371;49.782;9.932;2023-04-03T07:30:16;5.60;;;2.63;;
10645;SDS011;5371;49.782;9.932;2023-04-03T07:32:45;5.68;;;2.58;;
10645;SDS011;5371;49.782;9.932;2023-04-03T07:35:12;4.40;;;2.60;;
10645;SDS011;5371;49.782;9.932;2023-04-03T07:37:38;4.53;;;2.78;;
10645;SDS011;5371;49.782;9.932;2023-04-03T07:40:06;5.07;;;2.72;;
10645;SDS011;5371;49.782;9.932;2023-04-03T07:42:33;7.53;;;2.50;;
10645;SDS011;5371;49.782;9.932;2023-04-03T07:45:02;3.88;;;2.50;;
10645;SDS011;5371;49.782;9.932;2023-04-03T07:47:28;2.83;;;2.50;;
10645;SDS011;5371;49.782;9.932;2023-04-03T07:49:57;4.80;;;2.45;;
10645;SDS011;5371;49.782;9.932;2023-04-03T07:52:24;4.53;;;2.70;;
10645;SDS011;5371;49.782;9.932;2023-04-03T07:54:51;3.45;;;2.45;;
10645;SDS011;5371;49.782;9.932;2023-04-03T07:57:17;3.45;;;2.40;;
10645;SDS011;5371;49.782;9.932;2023-04-03T07:59:44;5.25;;;2.38;;
10645;SDS011;5371;49.782;9.932;2023-04-03T08:02:11;3.38;;;2.17;;
10645;SDS011;5371;49.782;9.932;2023-04-03T08:04:38;3.63;;;2.40;;
10645;SDS011;5371;49.782;9.932;2023-04-03T08:07:06;6.63;;;2.50;;
10645;SDS011;5371;49.782;9.932;2023-04-03T08:09:33;5.45;;;2.63;;
10645;SDS011;5371;49.782;9.932;2023-04-03T08:12:00;4.38;;;2.50;;
10645;SDS011;5371;49.782;9.932;2023-04-03T08:14:26;4.55;;;2.55;;
10645;SDS011;5371;49.782;9.932;2023-04-03T08:16:53;4.32;;;2.38;;
10645;SDS011;5371;49.782;9.932;2023-04-03T08:19:20;3.90;;;2.60;;
10645;SDS011;5371;49.782;9.932;2023-04-03T08:21:46;5.05;;;2.15;;
10645;SDS011;5371;49.782;9.932;2023-04-03T08:24:15;4.55;;;2.40;;
10645;SDS011;5371;49.782;9.932;2023-04-03T08:26:41;4.78;;;2.30;;
10645;SDS011;5371;49.782;9.932;2023-04-03T08:29:08;3.88;;;2.33;;
10645;SDS011;5371;49.782;9.932;2023-04-03T08:31:35;4.18;;;2.40;;
10645;SDS011;5371;49.782;9.932;2023-04-03T08:34:02;3.90;;;2.50;;
10645;SDS011;5371;49.782;9.932;2023-04-03T08:36:29;5.95;;;2.45;;
10645;SDS011;5371;49.782;9.932;2023-04-03T08:38:56;4.68;;;2.70;;
10645;SDS011;5371;49.782;9.932;2023-04-03T08:41:27;8.13;;;2.42;;
10645;SDS011;5371;49.782;9.932;2023-04-03T08:43:58;4.25;;;2.38;;
10645;SDS011;5371;49.782;9.932;2023-04-03T08:46:31;4.45;;;2.30;;
10645;SDS011;5371;49.782;9.932;2023-04-03T08:49:00;6.25;;;2.72;;
10645;SDS011;5371;49.782;9.932;2023-04-03T08:51:27;2.95;;;2.33;;
10645;SDS011;5371;49.782;9.932;2023-04-03T08:53:55;3.53;;;2.20;;
10645;SDS011;5371;49.782;9.932;2023-04-03T08:56:23;6.45;;;2.60;;
10645;SDS011;5371;49.782;9.932;2023-04-03T08:58:52;6.38;;;3.13;;
10645;SDS011;5371;49.782;9.932;2023-04-03T09:01:23;6.55;;;2.33;;
10645;SDS011;5371;49.782;9.932;2023-04-03T09:03:51;4.65;;;2.78;;
10645;SDS011;5371;49.782;9.932;2023-04-03T09:06:18;5.63;;;2.58;;
10645;SDS011;5371;49.782;9.932;2023-04-03T09:08:48;5.43;;;2.40;;
10645;SDS011;5371;49.782;9.932;2023-04-03T09:11:18;5.60;;;2.53;;
10645;SDS011;5371;49.782;9.932;2023-04-03T09:13:48;6.72;;;2.35;;
10645;SDS011;5371;49.782;9.932;2023-04-03T09:16:24;7.00;;;2.72;;
10645;SDS011;5371;49.782;9.932;2023-04-03T09:18:53;5.10;;;3.25;;
10645;SDS011;5371;49.782;9.932;2023-04-03T09:21:22;3.90;;;2.40;;
10645;SDS011;5371;49.782;9.932;2023-04-03T09:23:51;3.47;;;2.28;;
10645;SDS011;5371;49.782;9.932;2023-04-03T09:26:19;4.75;;;2.50;;
10645;SDS011;5371;49.782;9.932;2023-04-03T09:28:47;3.85;;;2.42;;
10645;SDS011;5371;49.782;9.932;2023-04-03T09:31:16;5.28;;;2.30;;
10645;SDS011;5371;49.782;9.932;2023-04-03T09:33:47;4.57;;;2.45;;
10645;SDS011;5371;49.782;9.932;2023-04-03T09:36:14;2.72;;;1.95;;
10645;SDS011;5371;49.782;9.932;2023-04-03T09:39:04;2.70;;;2.00;;
10645;SDS011;5371;49.782;9.932;2023-04-03T09:41:31;3.33;;;2.42;;
10645;SDS011;5371;49.782;9.932;2023-04-03T09:43:59;5.65;;;2.63;;
10645;SDS011;5371;49.782;9.932;2023-04-03T09:46:28;4.97;;;2.42;;
10645;SDS011;5371;49.782;9.932;2023-04-03T09:48:58;3.90;;;2.25;;
10645;SDS011;5371;49.782;9.932;2023-04-03T09:51:26;3.70;;;2.28;;
10645;SDS011;5371;49.782;9.932;2023-04-03T09:53:54;3.80;;;2.58;;
10645;SDS011;5371;49.782;9.932;2023-04-03T09:56:22;4.05;;;2.28;;
10645;SDS011;5371;49.782;9.932;2023-04-03T09:58:49;3.92;;;2.40;;
10645;SDS011;5371;49.782;9.932;2023-04-03T10:01:21;3.72;;;2.30;;
10645;SDS011;5371;49.782;9.932;2023-04-03T10:03:50;4.57;;;2.20;;
10645;SDS011;5371;49.782;9.932;2023-04-03T10:06:31;3.33;;;2.20;;
10645;SDS011;5371;49.782;9.932;2023-04-03T10:09:02;3.38;;;2.45;;
10645;SDS011;5371;49.782;9.932;2023-04-03T10:11:29;3.03;;;2.22;;
10645;SDS011;5371;49.782;9.932;2023-04-03T10:13:57;3.05;;;2.05;;
10645;SDS011;5371;49.782;9.932;2023-04-03T10:16:26;3.72;;;2.38;;
10645;SDS011;5371;49.782;9.932;2023-04-03T10:18:59;5.82;;;2.42;;
10645;SDS011;5371;49.782;9.932;2023-04-03T10:21:32;5.72;;;3.10;;
10645;SDS011;5371;49.782;9.932;2023-04-03T10:24:03;3.63;;;2.00;;
10645;SDS011;5371;49.782;9.932;2023-04-03T10:26:34;3.58;;;1.90;;
10645;SDS011;5371;49.782;9.932;2023-04-03T10:29:05;5.20;;;2.30;;
10645;SDS011;5371;49.782;9.932;2023-04-03T10:31:34;3.78;;;1.90;;
10645;SDS011;5371;49.782;9.932;2023-04-03T10:34:04;3.03;;;2.03;;
10645;SDS011;5371;49.782;9.932;2023-04-03T10:36:38;3.85;;;1.95;;
10645;SDS011;5371;49.782;9.932;2023-04-03T10:39:12;4.40;;;1.60;;
10645;SDS011;5371;49.782;9.932;2023-04-03T10:41:46;3.75;;;1.90;;
10645;SDS011;5371;49.782;9.932;2023-04-03T10:44:15;3.55;;;2.03;;
10645;SDS011;5371;49.782;9.932;2023-04-03T10:46:43;4.30;;;2.30;;
10645;SDS011;5371;49.782;9.932;2023-04-03T10:49:24;4.60;;;2.15;;
10645;SDS011;5371;49.782;9.932;2023-04-03T10:51:55;5.05;;;2.17;;
10645;SDS011;5371;49.782;9.932;2023-04-03T10:54:25;4.00;;;2.20;;
10645;SDS011;5371;49.782;9.932;2023-04-03T10:56:52;4.30;;;2.00;;
10645;SDS011;5371;49.782;9.932;2023-04-03T10:59:23;2.72;;;2.00;;
10645;SDS011;5371;49.782;9.932;2023-04-03T11:01:52;2.47;;;1.95;;
10645;SDS011;5371;49.782;9.932;2023-04-03T11:04:20;3.50;;;2.20;;
10645;SDS011;5371;49.782;9.932;2023-04-03T11:06:49;3.35;;;2.17;;
10645;SDS011;5371;49.782;9.932;2023-04-03T11:09:25;3.35;;;2.13;;
10645;SDS011;5371;49.782;9.932;2023-04-03T11:11:53;3.70;;;2.20;;
10645;SDS011;5371;49.782;9.932;2023-04-03T11:14:22;4.18;;;2.13;;
10645;SDS011;5371;49.782;9.932;2023-04-03T11:16:53;4.95;;;2.10;;
10645;SDS011;5371;49.782;9.932;2023-04-03T11:19:26;3.55;;;2.40;;
10645;SDS011;5371;49.782;9.932;2023-04-03T11:21:57;4.05;;;2.13;;
10645;SDS011;5371;49.782;9.932;2023-04-03T11:24:32;4.18;;;2.00;;
10645;SDS011;5371;49.782;9.932;2023-04-03T11:27:00;3.72;;;2.30;;
10645;SDS011;5371;49.782;9.932;2023-04-03T11:29:29;3.05;;;1.95;;
10645;SDS011;5371;49.782;9.932;2023-04-03T11:32:03;2.90;;;1.90;;
10645;SDS011;5371;49.782;9.932;2023-04-03T11:34:33;2.70;;;2.10;;
10645;SDS011;5371;49.782;9.932;2023-04-03T11:37:04;3.73;;;1.77;;
10645;SDS011;5371;49.782;9.932;2023-04-03T11:39:35;4.03;;;1.73;;
10645;SDS011;5371;49.782;9.932;2023-04-03T11:42:14;5.90;;;2.00;;
10645;SDS011;5371;49.782;9.932;2023-04-03T11:44:41;5.03;;;1.95;;
10645;SDS011;5371;49.782;9.932;2023-04-03T11:47:08;3.25;;;1.65;;
10645;SDS011;5371;49.782;9.932;2023-04-03T11:49:56;3.28;;;1.70;;
10645;SDS011;5371;49.782;9.932;2023-04-03T11:58:10;3.20;;;1.70;;
10645;SDS011;5371;49.782;9.932;2023-04-03T12:00:47;3.00;;;1.40;;
10645;SDS011;5371;49.782;9.932;2023-04-03T12:08:48;4.13;;;1.70;;
10645;SDS011;5371;49.782;9.932;2023-04-03T12:11:21;2.00;;;1.50;;
10645;SDS011;5371;49.782;9.932;2023-04-03T12:14:04;2.63;;;1.60;;
10645;SDS011;5371;49.782;9.932;2023-04-03T12:16:32;4.23;;;1.70;;
10645;SDS011;5371;49.782;9.932;2023-04-03T12:19:00;3.73;;;1.63;;
10645;SDS011;5371;49.782;9.932;2023-04-03T12:24:24;3.20;;;1.70;;
10645;SDS011;5371;49.782;9.932;2023-04-03T12:27:01;4.70;;;1.83;;
10645;SDS011;5371;49.782;9.932;2023-04-03T12:29:33;3.77;;;1.70;;
10645;SDS011;5371;49.782;9.932;2023-04-03T12:32:05;2.93;;;1.80;;
10645;SDS011;5371;49.782;9.932;2023-04-03T12:34:38;2.40;;;1.60;;
10645;SDS011;5371;49.782;9.932;2023-04-03T12:37:16;2.67;;;1.73;;
10645;SDS011;5371;49.782;9.932;2023-04-03T12:39:55;2.13;;;1.70;;
10645;SDS011;5371;49.782;9.932;2023-04-03T12:42:32;2.17;;;1.60;;
10645;SDS011;5371;49.782;9.932;2023-04-03T12:45:04;2.40;;;1.87;;
10645;SDS011;5371;49.782;9.932;2023-04-03T12:47:37;2.70;;;1.57;;
10645;SDS011;5371;49.782;9.932;2023-04-03T12:50:13;2.47;;;1.63;;
10645;SDS011;5371;49.782;9.932;2023-04-03T12:52:44;3.97;;;1.70;;
10645;SDS011;5371;49.782;9.932;2023-04-03T12:55:14;2.50;;;1.50;;
10645;SDS011;5371;49.782;9.932;2023-04-03T12:57:40;2.77;;;1.53;;
10645;SDS011;5371;49.782;9.932;2023-04-03T13:03:06;3.27;;;1.53;;
10645;SDS011;5371;49.782;9.932;2023-04-03T13:05:45;2.80;;;1.60;;
10645;SDS011;5371;49.782;9.932;2023-04-03T13:08:12;2.97;;;1.50;;
10645;SDS011;5371;49.782;9.932;2023-04-03T13:10:43;2.57;;;1.37;;
10645;SDS011;5371;49.782;9.932;2023-04-03T13:13:13;2.63;;;1.60;;
10645;SDS011;5371;49.782;9.932;2023-04-03T13:15:42;2.00;;;1.50;;
10645;SDS011;5371;49.782;9.932;2023-04-03T13:18:25;2.33;;;1.50;;
10645;SDS011;5371;49.782;9.932;2023-04-03T13:20:52;2.87;;;1.60;;
10645;SDS011;5371;49.782;9.932;2023-04-03T13:23:20;3.40;;;1.67;;
10645;SDS011;5371;49.782;9.932;2023-04-03T13:25:48;3.77;;;1.90;;
10645;SDS011;5371;49.782;9.932;2023-04-03T13:28:16;2.03;;;1.50;;
10645;SDS011;5371;49.782;9.932;2023-04-03T13:30:54;2.93;;;1.60;;
10645;SDS011;5371;49.782;9.932;2023-04-03T13:33:23;2.93;;;1.87;;
10645;SDS011;5371;49.782;9.932;2023-04-03T13:35:55;2.40;;;1.83;;
10645;SDS011;5371;49.782;9.932;2023-04-03T13:38:24;2.57;;;1.90;;
10645;SDS011;5371;49.782;9.932;2023-04-03T13:40:52;2.30;;;1.55;;
10645;SDS011;5371;49.782;9.932;2023-04-03T13:43:20;3.87;;;1.70;;
10645;SDS011;5371;49.782;9.932;2023-04-03T13:45:54;2.77;;;1.67;;
10645;SDS011;5371;49.782;9.932;2023-04-03T13:48:21;2.73;;;1.70;;
10645;SDS011;5371;49.782;9.932;2023-04-03T13:51:00;2.77;;;1.70;;
10645;SDS011;5371;49.782;9.932;2023-04-03T13:53:27;3.27;;;1.83;;
10645;SDS011;5371;49.782;9.932;2023-04-03T13:55:57;2.87;;;1.80;;
10645;SDS011;5371;49.782;9.932;2023-04-03T13:58:24;4.17;;;1.70;;
10645;SDS011;5371;49.782;9.932;2023-04-03T14:00:52;3.77;;;1.77;;
10645;SDS011;5371;49.782;9.932;2023-04-03T14:03:20;3.43;;;1.70;;
10645;SDS011;5371;49.782;9.932;2023-04-03T14:05:48;3.90;;;2.28;;
10645;SDS011;5371;49.782;9.932;2023-04-03T14:08:16;3.27;;;1.50;;
10645;SDS011;5371;49.782;9.932;2023-04-03T14:10:43;3.40;;;1.73;;
10645;SDS011;5371;49.782;9.932;2023-04-03T14:13:11;3.83;;;1.60;;
10645;SDS011;5371;49.782;9.932;2023-04-03T14:15:38;4.43;;;1.70;;
10645;SDS011;5371;49.782;9.932;2023-04-03T14:18:05;2.60;;;1.50;;
10645;SDS011;5371;49.782;9.932;2023-04-03T14:20:32;4.43;;;1.75;;
10645;SDS011;5371;49.782;9.932;2023-04-03T14:22:59;3.88;;;1.60;;
10645;SDS011;5371;49.782;9.932;2023-04-03T14:25:27;2.50;;;1.58;;
10645;SDS011;5371;49.782;9.932;2023-04-03T14:27:54;3.60;;;1.70;;
10645;SDS011;5371;49.782;9.932;2023-04-03T14:30:22;2.90;;;1.33;;
10645;SDS011;5371;49.782;9.932;2023-04-03T14:32:49;4.00;;;1.50;;
10645;SDS011;5371;49.782;9.932;2023-04-03T14:35:17;5.53;;;1.60;;
10645;SDS011;5371;49.782;9.932;2023-04-03T14:37:44;3.90;;;1.60;;
10645;SDS011;5371;49.782;9.932;2023-04-03T14:40:12;6.35;;;1.50;;
10645;SDS011;5371;49.782;9.932;2023-04-03T14:42:40;4.07;;;1.60;;
10645;SDS011;5371;49.782;9.932;2023-04-03T14:45:08;2.70;;;1.60;;
10645;SDS011;5371;49.782;9.932;2023-04-03T14:47:36;2.63;;;1.43;;
10645;SDS011;5371;49.782;9.932;2023-04-03T14:50:07;2.80;;;1.40;;
10645;SDS011;5371;49.782;9.932;2023-04-03T14:52:35;3.30;;;1.67;;
10645;SDS011;5371;49.782;9.932;2023-04-03T14:55:02;7.18;;;1.98;;
10645;SDS011;5371;49.782;9.932;2023-04-03T14:57:30;3.40;;;1.67;;
10645;SDS011;5371;49.782;9.932;2023-04-03T14:59:58;3.50;;;1.95;;
10645;SDS011;5371;49.782;9.932;2023-04-03T15:02:27;3.80;;;1.50;;
10645;SDS011;5371;49.782;9.932;2023-04-03T15:04:54;3.50;;;1.60;;
10645;SDS011;5371;49.782;9.932;2023-04-03T15:07:22;3.17;;;1.60;;
10645;SDS011;5371;49.782;9.932;2023-04-03T15:09:49;2.27;;;1.50;;
10645;SDS011;5371;49.782;9.932;2023-04-03T15:12:16;3.97;;;1.60;;
10645;SDS011;5371;49.782;9.932;2023-04-03T15:14:43;6.10;;;1.70;;
10645;SDS011;5371;49.782;9.932;2023-04-03T15:17:14;3.47;;;1.63;;
10645;SDS011;5371;49.782;9.932;2023-04-03T15:19:41;4.10;;;1.60;;
10645;SDS011;5371;49.782;9.932;2023-04-03T15:22:08;3.03;;;1.37;;
10645;SDS011;5371;49.782;9.932;2023-04-03T15:24:38;4.50;;;1.60;;
10645;SDS011;5371;49.782;9.932;2023-04-03T15:27:05;4.93;;;1.70;;